createdAt,value
2018-04-24T00:01:39.490Z,15.48
2018-04-24T00:04:07.605Z,15.46
2018-04-24T00:06:35.741Z,15.44
2018-04-24T00:09:03.871Z,15.41
2018-04-24T00:11:32.057Z,15.37
2018-04-24T00:14:00.181Z,15.34
2018-04-24T00:16:28.297Z,15.33
2018-04-24T00:18:56.437Z,15.28
2018-04-24T00:21:24.589Z,15.24
2018-04-24T00:23:52.722Z,15.21
2018-04-24T00:26:20.850Z,15.18
2018-04-24T00:28:48.975Z,15.14
2018-04-24T00:31:17.161Z,15.10
2018-04-24T00:33:45.305Z,15.09
2018-04-24T00:36:13.421Z,15.06
2018-04-24T00:38:41.584Z,15.02
2018-04-24T00:41:10.176Z,15.00
2018-04-24T00:43:38.740Z,14.98
2018-04-24T00:46:06.872Z,15.02
2018-04-24T00:48:34.991Z,14.92
2018-04-24T00:51:03.109Z,15.02
2018-04-24T00:53:43.223Z,15.03
2018-04-24T00:56:11.344Z,15.04
2018-04-24T00:58:39.465Z,15.06
2018-04-24T01:01:07.599Z,15.03
2018-04-24T01:03:35.744Z,15.07
2018-04-24T01:06:03.853Z,15.10
2018-04-24T01:08:31.994Z,15.11
2018-04-24T01:11:00.120Z,15.08
2018-04-24T01:13:28.344Z,15.08
2018-04-24T01:15:56.487Z,15.06
2018-04-24T01:18:24.615Z,15.03
2018-04-24T01:20:52.738Z,15.02
2018-04-24T01:23:20.874Z,15.03
2018-04-24T01:25:49.071Z,15.02
2018-04-24T01:28:17.190Z,15.04
2018-04-24T01:30:45.331Z,15.11
2018-04-24T01:33:13.447Z,15.12
2018-04-24T01:35:41.600Z,15.08
2018-04-24T01:38:09.722Z,15.04
2018-04-24T01:40:37.848Z,15.03
2018-04-24T01:43:06.009Z,15.01
2018-04-24T01:45:34.226Z,15.03
2018-04-24T01:48:02.347Z,15.02
2018-04-24T01:50:30.479Z,15.01
2018-04-24T01:52:58.647Z,14.98
2018-04-24T01:55:26.777Z,14.99
2018-04-24T01:57:54.895Z,15.05
2018-04-24T02:00:23.016Z,14.99
2018-04-24T02:02:51.350Z,14.96
2018-04-24T02:05:19.474Z,14.99
2018-04-24T02:07:47.605Z,15.00
2018-04-24T02:10:15.730Z,15.04
2018-04-24T02:12:43.874Z,15.02
2018-04-24T02:15:12.008Z,15.05
2018-04-24T02:17:40.131Z,15.10
2018-04-24T02:20:08.291Z,15.10
2018-04-24T02:22:36.526Z,15.14
2018-04-24T02:25:04.668Z,15.13
2018-04-24T02:27:32.745Z,15.16
2018-04-24T02:30:01.077Z,15.17
2018-04-24T02:32:29.182Z,15.26
2018-04-24T02:34:57.336Z,15.22
2018-04-24T02:37:25.477Z,15.20
2018-04-24T02:39:53.618Z,15.24
2018-04-24T02:42:21.757Z,15.21
2018-04-24T02:44:49.954Z,15.21
2018-04-24T02:47:18.071Z,15.22
2018-04-24T02:49:46.224Z,15.18
2018-04-24T02:52:14.361Z,15.17
2018-04-24T02:54:42.525Z,15.12
2018-04-24T02:57:10.683Z,15.10
2018-04-24T02:59:38.840Z,15.10
2018-04-24T03:02:06.965Z,15.07
2018-04-24T03:04:38.844Z,15.03
2018-04-24T03:07:07.082Z,15.01
2018-04-24T03:09:35.207Z,15.07
2018-04-24T03:12:03.379Z,15.02
2018-04-24T03:14:31.527Z,15.08
2018-04-24T03:16:59.643Z,15.10
2018-04-24T03:19:27.805Z,15.08
2018-04-24T03:21:55.948Z,15.07
2018-04-24T03:24:24.087Z,15.08
2018-04-24T03:26:52.250Z,15.09
2018-04-24T03:29:20.406Z,15.09
2018-04-24T03:31:48.575Z,15.08
2018-04-24T03:34:16.727Z,15.08
2018-04-24T03:36:44.860Z,15.08
2018-04-24T03:39:13.026Z,15.09
2018-04-24T03:41:41.190Z,15.10
2018-04-24T03:44:09.322Z,15.12
2018-04-24T03:46:37.456Z,15.16
2018-04-24T03:49:05.637Z,15.14
2018-04-24T03:51:33.820Z,15.14
2018-04-24T03:54:01.942Z,15.14
2018-04-24T03:56:30.078Z,15.11
2018-04-24T03:58:58.259Z,15.11
2018-04-24T04:01:26.424Z,15.10
2018-04-24T04:03:54.568Z,15.10
2018-04-24T04:06:22.691Z,15.11
2018-04-24T04:08:50.838Z,15.15
2018-04-24T04:11:18.985Z,15.16
2018-04-24T04:13:47.123Z,15.16
2018-04-24T04:16:15.590Z,15.25
2018-04-24T04:18:55.475Z,15.27
2018-04-24T04:24:36.449Z,15.28
2018-04-24T04:27:04.586Z,15.24
2018-04-24T04:29:32.756Z,15.28
2018-04-24T04:32:00.972Z,15.32
2018-04-24T04:34:29.121Z,15.33
2018-04-24T04:36:57.265Z,15.33
2018-04-24T04:39:25.408Z,15.34
2018-04-24T04:41:53.577Z,15.34
2018-04-24T04:44:21.702Z,15.31
2018-04-24T04:46:49.870Z,15.34
2018-04-24T04:49:17.998Z,15.32
2018-04-24T04:51:46.170Z,15.32
2018-04-24T04:54:14.327Z,15.33
2018-04-24T04:56:42.479Z,15.37
2018-04-24T04:59:10.614Z,15.36
2018-04-24T05:01:38.755Z,15.37
2018-04-24T05:04:06.888Z,15.38
2018-04-24T05:06:35.029Z,15.38
2018-04-24T05:09:03.182Z,15.40
2018-04-24T05:11:31.335Z,15.43
2018-04-24T05:13:59.470Z,15.47
2018-04-24T05:16:27.599Z,15.49
2018-04-24T05:18:55.725Z,15.53
2018-04-24T05:21:24.052Z,15.57
2018-04-24T05:23:52.225Z,15.60
2018-04-24T05:26:20.422Z,15.65
2018-04-24T05:28:48.602Z,15.68
2018-04-24T05:31:16.739Z,15.70
2018-04-24T05:33:44.883Z,15.75
2018-04-24T05:36:13.021Z,15.79
2018-04-24T05:38:41.164Z,15.91
2018-04-24T05:41:10.187Z,15.98
2018-04-24T05:43:38.311Z,16.16
2018-04-24T05:46:06.465Z,16.24
2018-04-24T05:48:34.638Z,16.45
2018-04-24T05:51:02.814Z,16.65
2018-04-24T05:53:30.957Z,16.82
2018-04-24T05:55:59.072Z,16.90
2018-04-24T05:58:27.264Z,16.98
2018-04-24T06:00:55.398Z,16.96
2018-04-24T06:03:23.538Z,17.01
2018-04-24T06:05:51.657Z,17.15
2018-04-24T06:08:19.999Z,17.16
2018-04-24T06:10:48.047Z,17.13
2018-04-24T06:13:16.205Z,17.11
2018-04-24T06:15:44.325Z,16.96
2018-04-24T06:18:12.450Z,16.89
2018-04-24T06:20:40.606Z,16.79
2018-04-24T06:23:08.723Z,16.71
2018-04-24T06:25:36.850Z,16.67
2018-04-24T06:28:04.982Z,16.64
2018-04-24T06:30:33.111Z,16.69
2018-04-24T06:33:01.335Z,16.77
2018-04-24T06:35:29.505Z,16.79
2018-04-24T06:37:57.627Z,16.76
2018-04-24T06:40:25.757Z,16.71
2018-04-24T06:42:53.880Z,16.65
2018-04-24T06:45:22.030Z,16.56
2018-04-24T06:47:50.207Z,16.58
2018-04-24T06:50:18.276Z,16.53
2018-04-24T06:52:46.439Z,16.49
2018-04-24T06:55:14.563Z,16.48
2018-04-24T06:57:42.769Z,16.47
2018-04-24T07:00:10.927Z,16.51
2018-04-24T07:02:39.048Z,16.52
2018-04-24T07:05:07.212Z,16.52
2018-04-24T07:07:35.361Z,16.53
2018-04-24T07:10:03.518Z,16.55
2018-04-24T07:12:31.654Z,16.58
2018-04-24T07:14:59.803Z,16.62
2018-04-24T07:17:27.946Z,16.60
2018-04-24T07:19:56.074Z,16.52
2018-04-24T07:22:24.206Z,16.49
2018-04-24T07:24:52.371Z,16.46
2018-04-24T07:27:20.485Z,16.58
2018-04-24T07:29:48.643Z,16.58
2018-04-24T07:32:16.759Z,16.50
2018-04-24T07:34:45.144Z,16.45
2018-04-24T07:37:13.288Z,16.47
2018-04-24T07:39:41.405Z,16.45
2018-04-24T07:42:09.531Z,16.45
2018-04-24T07:44:37.672Z,16.54
2018-04-24T07:47:05.809Z,16.52
2018-04-24T07:49:33.935Z,16.49
2018-04-24T07:52:02.061Z,16.50
2018-04-24T07:54:30.188Z,16.52
2018-04-24T07:56:58.305Z,16.53
2018-04-24T07:59:26.581Z,16.54
2018-04-24T08:01:54.555Z,16.49
2018-04-24T08:04:22.686Z,16.53
2018-04-24T08:06:50.815Z,16.49
2018-04-24T08:09:18.925Z,16.49
2018-04-24T08:11:47.047Z,16.51
2018-04-24T08:14:15.215Z,16.59
2018-04-24T08:16:43.328Z,16.71
2018-04-24T08:19:11.461Z,16.79
2018-04-24T08:21:39.582Z,16.96
2018-04-24T08:24:07.729Z,17.10
2018-04-24T08:26:35.842Z,17.19
2018-04-24T08:29:04.028Z,17.25
2018-04-24T08:31:32.160Z,17.34
2018-04-24T08:34:00.301Z,17.35
2018-04-24T08:36:28.416Z,17.40
2018-04-24T08:38:56.566Z,17.38
2018-04-24T08:41:24.681Z,17.45
2018-04-24T08:43:52.825Z,17.54
2018-04-24T08:46:20.942Z,17.60
2018-04-24T08:48:49.094Z,17.62
2018-04-24T08:51:17.517Z,17.64
2018-04-24T08:53:45.901Z,17.72
2018-04-24T08:56:14.066Z,17.78
2018-04-24T08:58:42.245Z,17.95
2018-04-24T09:01:10.383Z,18.20
2018-04-24T09:03:38.519Z,18.45
2018-04-24T09:06:06.655Z,18.61
2018-04-24T09:08:34.813Z,18.55
2018-04-24T09:11:02.925Z,18.55
2018-04-24T09:13:31.114Z,18.51
2018-04-24T09:15:59.286Z,18.60
2018-04-24T09:18:27.411Z,18.63
2018-04-24T09:20:55.605Z,18.57
2018-04-24T09:23:23.760Z,18.46
2018-04-24T09:25:51.906Z,18.59
2018-04-24T09:28:20.033Z,18.90
2018-04-24T09:30:48.177Z,19.13
2018-04-24T09:33:16.297Z,19.39
2018-04-24T09:35:44.430Z,19.60
2018-04-24T09:38:12.594Z,19.74
2018-04-24T09:40:40.730Z,19.81
2018-04-24T09:43:09.917Z,19.91
2018-04-24T09:45:38.046Z,19.85
2018-04-24T09:48:06.186Z,19.84
2018-04-24T09:50:34.334Z,19.84
2018-04-24T09:53:02.465Z,19.98
2018-04-24T09:55:30.622Z,20.08
2018-04-24T09:57:58.766Z,20.13
2018-04-24T10:00:32.449Z,20.07
2018-04-24T10:03:00.626Z,20.39
2018-04-24T10:05:28.765Z,20.46
2018-04-24T10:07:56.932Z,20.37
2018-04-24T10:10:25.066Z,20.22
2018-04-24T10:12:53.220Z,20.14
2018-04-24T10:15:21.415Z,20.09
2018-04-24T10:17:49.559Z,20.16
2018-04-24T10:20:17.697Z,20.16
2018-04-24T10:22:45.832Z,20.06
2018-04-24T10:25:15.078Z,20.06
2018-04-24T10:27:43.208Z,20.35
2018-04-24T10:30:11.348Z,20.71
2018-04-24T10:32:39.470Z,21.09
2018-04-24T10:35:07.636Z,21.41
2018-04-24T10:37:35.784Z,21.71
2018-04-24T10:40:03.928Z,21.91
2018-04-24T10:42:32.061Z,22.15
2018-04-24T10:45:00.207Z,21.84
2018-04-24T10:47:28.655Z,21.90
2018-04-24T10:49:56.786Z,22.16
2018-04-24T10:52:24.919Z,22.43
2018-04-24T10:54:53.049Z,22.29
2018-04-24T10:57:21.190Z,22.18
2018-04-24T10:59:49.332Z,22.14
2018-04-24T11:02:17.522Z,22.20
2018-04-24T11:04:45.642Z,22.35
2018-04-24T11:07:13.782Z,22.50
2018-04-24T11:09:41.921Z,22.42
2018-04-24T11:12:10.048Z,22.68
2018-04-24T11:14:38.207Z,22.57
2018-04-24T11:17:07.462Z,22.73
2018-04-24T11:19:35.559Z,22.81
2018-04-24T11:22:03.707Z,23.05
2018-04-24T11:24:31.850Z,23.25
2018-04-24T11:26:59.984Z,23.20
2018-04-24T11:29:28.148Z,23.22
2018-04-24T11:31:56.301Z,23.30
2018-04-24T11:34:24.487Z,23.52
2018-04-24T11:36:52.592Z,23.53
2018-04-24T11:39:20.737Z,23.34
2018-04-24T11:41:49.772Z,23.09
2018-04-24T11:44:17.905Z,22.69
2018-04-24T11:46:46.039Z,22.48
2018-04-24T11:49:14.165Z,22.77
2018-04-24T11:51:42.327Z,23.10
2018-04-24T11:54:10.507Z,23.56
2018-04-24T11:56:38.635Z,23.85
2018-04-24T11:59:06.769Z,24.04
2018-04-24T12:01:34.930Z,24.07
2018-04-24T12:04:03.036Z,24.10
2018-04-24T12:06:31.168Z,23.78
2018-04-24T12:08:59.315Z,23.80
2018-04-24T12:11:27.435Z,23.77
2018-04-24T12:13:55.574Z,23.80
2018-04-24T12:16:23.715Z,23.80
2018-04-24T12:18:51.858Z,23.47
2018-04-24T12:21:19.978Z,23.19
2018-04-24T12:23:48.122Z,23.38
2018-04-24T12:26:16.284Z,23.44
2018-04-24T12:28:44.654Z,23.40
2018-04-24T12:31:12.775Z,23.36
2018-04-24T12:33:40.981Z,23.55
2018-04-24T12:36:09.196Z,23.73
2018-04-24T12:38:37.383Z,24.01
2018-04-24T12:41:05.676Z,24.21
2018-04-24T12:43:33.900Z,24.06
2018-04-24T12:46:02.277Z,24.02
2018-04-24T12:48:30.595Z,24.14
2018-04-24T12:50:58.767Z,24.01
2018-04-24T12:53:26.906Z,23.93
2018-04-24T12:55:55.039Z,23.85
2018-04-24T12:58:23.165Z,23.86
2018-04-24T13:00:51.292Z,23.96
2018-04-24T13:03:19.449Z,24.21
2018-04-24T13:05:47.583Z,24.32
2018-04-24T13:08:16.448Z,24.25
2018-04-24T13:10:44.554Z,24.24
2018-04-24T13:13:12.685Z,24.20
2018-04-24T13:15:40.851Z,24.24
2018-04-24T13:18:08.976Z,24.20
2018-04-24T13:20:37.113Z,24.33
2018-04-24T13:23:05.262Z,24.27
2018-04-24T13:25:33.478Z,24.18
2018-04-24T13:28:01.750Z,24.20
2018-04-24T13:30:29.904Z,24.37
2018-04-24T13:32:58.034Z,24.32
2018-04-24T13:35:26.176Z,24.31
2018-04-24T13:37:54.553Z,24.38
2018-04-24T13:40:22.701Z,24.39
2018-04-24T13:42:50.939Z,24.33
2018-04-24T13:45:19.119Z,24.24
2018-04-24T13:47:47.264Z,24.07
2018-04-24T13:50:15.534Z,24.02
2018-04-24T13:52:44.180Z,24.03
2018-04-24T13:55:12.707Z,24.06
2018-04-24T13:57:40.872Z,23.88
2018-04-24T14:00:08.991Z,23.93
2018-04-24T14:02:37.151Z,23.92
2018-04-24T14:05:05.358Z,24.03
2018-04-24T14:07:33.469Z,24.02
2018-04-24T14:10:01.610Z,24.01
2018-04-24T14:12:29.753Z,23.96
2018-04-24T14:14:59.513Z,23.83
2018-04-24T14:17:27.628Z,23.87
2018-04-24T14:19:55.746Z,23.85
2018-04-24T14:22:23.887Z,23.82
2018-04-24T14:24:52.025Z,23.86
2018-04-24T14:27:20.178Z,23.96
2018-04-24T14:29:48.327Z,23.90
2018-04-24T14:32:16.461Z,23.97
2018-04-24T14:34:44.618Z,24.07
2018-04-24T14:37:12.765Z,24.09
2018-04-24T14:39:40.882Z,24.13
2018-04-24T14:42:09.677Z,24.07
2018-04-24T14:44:37.917Z,24.18
2018-04-24T14:47:06.091Z,24.06
2018-04-24T14:49:34.334Z,24.17
2018-04-24T14:52:02.458Z,24.09
2018-04-24T14:54:30.587Z,24.07
2018-04-24T14:56:58.740Z,24.09
2018-04-24T14:59:26.858Z,24.04
2018-04-24T15:01:55.036Z,23.96
2018-04-24T15:04:23.180Z,23.83
2018-04-24T15:06:51.303Z,23.82
2018-04-24T15:09:19.445Z,23.78
2018-04-24T15:11:47.589Z,23.73
2018-04-24T15:14:15.771Z,23.77
2018-04-24T15:16:43.895Z,23.82
2018-04-24T15:19:12.013Z,23.89
2018-04-24T15:21:40.141Z,23.88
2018-04-24T15:24:09.185Z,23.92
2018-04-24T15:26:37.298Z,23.84
2018-04-24T15:29:05.460Z,23.92
2018-04-24T15:31:33.566Z,23.93
2018-04-24T15:34:01.741Z,23.87
2018-04-24T15:36:29.934Z,23.84
2018-04-24T15:38:58.011Z,23.79
2018-04-24T15:41:26.160Z,23.74
2018-04-24T15:43:54.282Z,23.62
2018-04-24T15:46:22.414Z,23.69
2018-04-24T15:48:50.554Z,23.60
2018-04-24T15:51:18.678Z,23.48
2018-04-24T15:53:46.844Z,23.38
2018-04-24T15:56:14.969Z,23.28
2018-04-24T15:58:43.150Z,23.14
2018-04-24T16:01:11.271Z,23.03
2018-04-24T16:03:39.405Z,22.92
2018-04-24T16:06:07.542Z,22.77
2018-04-24T16:08:35.663Z,22.65
2018-04-24T16:11:04.496Z,22.62
2018-04-24T16:13:32.621Z,22.59
2018-04-24T16:16:00.741Z,22.58
2018-04-24T16:18:28.877Z,22.57
2018-04-24T16:20:57.011Z,22.60
2018-04-24T16:23:25.152Z,22.61
2018-04-24T16:25:53.274Z,22.61
2018-04-24T16:28:21.551Z,22.57
2018-04-24T16:30:49.682Z,22.55
2018-04-24T16:33:17.791Z,22.60
2018-04-24T16:35:46.023Z,22.53
2018-04-24T16:38:14.059Z,22.50
2018-04-24T16:40:42.190Z,22.42
2018-04-24T16:43:10.343Z,22.35
2018-04-24T16:45:38.493Z,22.35
2018-04-24T16:48:06.606Z,22.32
2018-04-24T16:50:34.847Z,22.26
2018-04-24T16:53:02.971Z,22.20
2018-04-24T16:55:31.115Z,22.12
2018-04-24T16:57:59.247Z,22.06
2018-04-24T17:00:27.368Z,21.99
2018-04-24T17:02:55.486Z,21.91
2018-04-24T17:05:23.727Z,21.84
2018-04-24T17:07:51.867Z,21.76
2018-04-24T17:10:20.013Z,21.67
2018-04-24T17:12:48.149Z,21.64
2018-04-24T17:15:16.278Z,21.54
2018-04-24T17:17:44.419Z,21.46
2018-04-24T17:20:12.590Z,21.40
2018-04-24T17:22:40.724Z,21.32
2018-04-24T17:25:08.852Z,21.20
2018-04-24T17:27:37.002Z,21.08
2018-04-24T17:30:05.142Z,20.97
2018-04-24T17:32:33.282Z,20.82
2018-04-24T17:35:01.399Z,20.69
2018-04-24T17:37:29.525Z,20.58
2018-04-24T17:39:57.641Z,20.45
2018-04-24T17:42:25.765Z,20.33
2018-04-24T17:44:53.914Z,20.21
2018-04-24T17:47:22.040Z,20.07
2018-04-24T17:49:50.204Z,19.90
2018-04-24T17:52:18.312Z,19.74
2018-04-24T17:54:46.431Z,19.60
2018-04-24T17:57:14.628Z,19.46
2018-04-24T17:59:42.699Z,19.35
2018-04-24T18:02:10.827Z,19.24
2018-04-24T18:04:38.951Z,19.12
2018-04-24T18:07:07.207Z,19.02
2018-04-24T18:09:35.331Z,18.89
2018-04-24T18:12:03.478Z,18.78
2018-04-24T18:14:31.603Z,18.66
2018-04-24T18:16:59.723Z,18.53
2018-04-24T18:19:27.852Z,18.44
2018-04-24T18:21:56.799Z,18.35
2018-04-24T18:24:24.927Z,18.25
2018-04-24T18:26:53.084Z,18.13
2018-04-24T18:29:21.191Z,18.02
2018-04-24T18:31:49.324Z,17.94
2018-04-24T18:34:17.662Z,17.83
2018-04-24T18:36:45.794Z,17.76
2018-04-24T18:39:13.913Z,17.71
2018-04-24T18:41:42.073Z,17.65
2018-04-24T18:44:10.197Z,17.62
2018-04-24T18:46:38.766Z,17.60
2018-04-24T18:49:07.000Z,17.55
2018-04-24T18:51:35.126Z,17.50
2018-04-24T18:54:03.254Z,17.46
2018-04-24T18:56:31.398Z,17.41
2018-04-24T18:58:59.530Z,17.34
2018-04-24T19:01:27.638Z,17.28
2018-04-24T19:03:55.808Z,17.22
2018-04-24T19:06:23.927Z,17.17
2018-04-24T19:08:52.047Z,17.08
2018-04-24T19:11:20.204Z,17.02
2018-04-24T19:13:48.335Z,16.95
2018-04-24T19:16:16.474Z,16.87
2018-04-24T19:18:50.252Z,16.83
2018-04-24T19:21:18.390Z,16.78
2018-04-24T19:23:46.551Z,16.72
2018-04-24T19:26:14.688Z,16.65
2018-04-24T19:28:42.813Z,16.59
2018-04-24T19:31:16.506Z,16.53
2018-04-24T19:33:45.162Z,16.47
2018-04-24T19:36:13.309Z,16.41
2018-04-24T19:38:46.955Z,16.37
2018-04-24T19:41:20.747Z,16.32
2018-04-24T19:43:48.867Z,16.26
2018-04-24T19:46:17.011Z,16.21
2018-04-24T19:48:50.688Z,16.17
2018-04-24T19:51:18.828Z,16.15
2018-04-24T19:53:46.968Z,16.10
2018-04-24T19:56:15.113Z,16.04
2018-04-24T19:58:43.309Z,16.00
2018-04-24T20:01:11.363Z,15.95
2018-04-24T20:03:39.496Z,15.89
2018-04-24T20:06:07.629Z,15.84
2018-04-24T20:08:35.771Z,15.78
2018-04-24T20:11:03.902Z,15.74
2018-04-24T20:13:32.074Z,15.71
2018-04-24T20:16:00.212Z,15.67
2018-04-24T20:18:28.343Z,15.65
2018-04-24T20:20:56.480Z,15.61
2018-04-24T20:23:24.621Z,15.56
2018-04-24T20:25:52.862Z,15.50
2018-04-24T20:28:21.000Z,15.49
2018-04-24T20:30:49.127Z,15.44
2018-04-24T20:33:17.260Z,15.41
2018-04-24T20:35:45.378Z,15.34
2018-04-24T20:38:13.510Z,15.19
2018-04-24T20:40:41.660Z,15.11
2018-04-24T20:43:09.992Z,15.05
2018-04-24T20:45:38.121Z,14.97
2018-04-24T20:48:06.250Z,14.94
2018-04-24T20:50:34.386Z,14.90
2018-04-24T20:53:02.528Z,14.86
2018-04-24T20:55:30.658Z,14.72
2018-04-24T20:57:58.773Z,14.65
2018-04-24T21:00:26.900Z,14.63
2018-04-24T21:02:55.028Z,14.61
2018-04-24T21:05:23.158Z,14.60
2018-04-24T21:07:51.299Z,14.60
2018-04-24T21:10:19.427Z,14.58
2018-04-24T21:12:47.624Z,14.55
2018-04-24T21:15:15.790Z,14.49
2018-04-24T21:17:43.939Z,14.38
2018-04-24T21:20:12.071Z,14.18
2018-04-24T21:22:40.194Z,14.10
2018-04-24T21:25:08.332Z,14.07
2018-04-24T21:27:36.468Z,14.04
2018-04-24T21:30:04.604Z,14.03
2018-04-24T21:32:32.782Z,14.03
2018-04-24T21:35:00.918Z,14.04
2018-04-24T21:37:29.041Z,14.03
2018-04-24T21:39:57.180Z,14.01
2018-04-24T21:42:25.309Z,13.96
2018-04-24T21:44:53.438Z,13.90
2018-04-24T21:47:21.614Z,13.88
2018-04-24T21:49:49.740Z,13.85
2018-04-24T21:52:17.866Z,13.77
2018-04-24T21:54:45.999Z,13.71
2018-04-24T21:57:14.126Z,13.67
2018-04-24T21:59:42.257Z,13.65
2018-04-24T22:02:10.412Z,13.62
2018-04-24T22:04:42.402Z,13.59
2018-04-24T22:07:10.578Z,13.44
2018-04-24T22:09:38.706Z,13.53
2018-04-24T22:12:06.845Z,13.51
2018-04-24T22:14:34.975Z,13.47
2018-04-24T22:17:03.110Z,13.43
2018-04-24T22:19:31.255Z,13.38
2018-04-24T22:21:59.387Z,13.34
2018-04-24T22:24:27.536Z,13.27
2018-04-24T22:26:55.768Z,13.22
2018-04-24T22:29:23.910Z,13.19
2018-04-24T22:31:52.052Z,13.17
2018-04-24T22:34:20.190Z,13.14
2018-04-24T22:36:48.327Z,13.10
2018-04-24T22:39:16.455Z,13.08
2018-04-24T22:41:44.580Z,13.03
2018-04-24T22:44:16.179Z,12.97
2018-04-24T22:46:44.314Z,12.95
2018-04-24T22:49:12.445Z,12.92
2018-04-24T22:51:40.583Z,12.89
2018-04-24T22:54:08.723Z,12.82
2018-04-24T22:56:36.859Z,12.70
2018-04-24T22:59:04.993Z,12.61
2018-04-24T23:01:33.117Z,12.60
2018-04-24T23:04:01.411Z,12.58
2018-04-24T23:06:29.538Z,12.58
2018-04-24T23:08:57.668Z,12.58
2018-04-24T23:11:37.856Z,12.57
2018-04-24T23:14:17.752Z,12.56
2018-04-24T23:16:57.785Z,12.55
2018-04-24T23:19:37.775Z,12.54
2018-04-24T23:22:05.376Z,12.47
2018-04-24T23:24:33.521Z,12.43
2018-04-24T23:27:01.641Z,12.41
2018-04-24T23:29:29.817Z,12.39
2018-04-24T23:31:57.933Z,12.36
2018-04-24T23:34:26.209Z,12.31
2018-04-24T23:36:54.334Z,12.22
2018-04-24T23:39:22.470Z,12.17
2018-04-24T23:41:50.616Z,12.15
2018-04-24T23:44:18.741Z,12.13
2018-04-24T23:46:46.871Z,12.12
2018-04-24T23:49:15.016Z,12.14
2018-04-24T23:51:43.147Z,12.15
2018-04-24T23:54:11.277Z,12.15
2018-04-24T23:56:39.409Z,12.15
2018-04-24T23:59:07.543Z,12.14
